sensor_id;sensor_type;location;lat;lon;timestamp;P1;durP1;ratioP1;P2;durP2;ratioP2
23567;SDS011;11962;50.838;4.430;2023-04-03T00:00:11;13.23;;;8.65;;
23567;SDS011;11962;50.838;4.430;2023-04-03T00:02:37;15.32;;;8.68;;
23567;SDS011;11962;50.838;4.430;2023-04-03T00:05:03;15.65;;;8.20;;
23567;SDS011;11962;50.838;4.430;2023-04-03T00:07:29;17.60;;;9.07;;
23567;SDS011;11962;50.838;4.430;2023-04-03T00:09:55;19.02;;;8.93;;
23567;SDS011;11962;50.838;4.430;2023-04-03T00:12:21;13.35;;;8.73;;
23567;SDS011;11962;50.838;4.430;2023-04-03T00:14:46;12.93;;;8.52;;
23567;SDS011;11962;50.838;4.430;2023-04-03T00:17:12;14.60;;;8.20;;
23567;SDS011;11962;50.838;4.430;2023-04-03T00:19:38;14.27;;;8.45;;
23567;SDS011;11962;50.838;4.430;2023-04-03T00:22:04;13.80;;;8.75;;
23567;SDS011;11962;50.838;4.430;2023-04-03T00:24:29;13.00;;;8.27;;
23567;SDS011;11962;50.838;4.430;2023-04-03T00:26:55;13.48;;;8.88;;
23567;SDS011;11962;50.838;4.430;2023-04-03T00:29:21;11.40;;;7.63;;
23567;SDS011;11962;50.838;4.430;2023-04-03T00:31:47;11.70;;;7.78;;
23567;SDS011;11962;50.838;4.430;2023-04-03T00:34:12;12.88;;;8.52;;
23567;SDS011;11962;50.838;4.430;2023-04-03T00:36:38;10.77;;;7.40;;
23567;SDS011;11962;50.838;4.430;2023-04-03T00:39:04;11.55;;;7.75;;
23567;SDS011;11962;50.838;4.430;2023-04-03T00:41:31;11.73;;;7.82;;
23567;SDS011;11962;50.838;4.430;2023-04-03T00:43:57;11.57;;;7.75;;
23567;SDS011;11962;50.838;4.430;2023-04-03T00:46:22;12.35;;;8.30;;
23567;SDS011;11962;50.838;4.430;2023-04-03T00:48:48;11.60;;;7.80;;
23567;SDS011;11962;50.838;4.430;2023-04-03T00:51:19;11.40;;;7.22;;
23567;SDS011;11962;50.838;4.430;2023-04-03T00:53:49;11.50;;;7.32;;
23567;SDS011;11962;50.838;4.430;2023-04-03T00:56:19;8.95;;;6.72;;
23567;SDS011;11962;50.838;4.430;2023-04-03T00:58:50;10.57;;;7.22;;
23567;SDS011;11962;50.838;4.430;2023-04-03T01:01:24;12.35;;;7.18;;
23567;SDS011;11962;50.838;4.430;2023-04-03T01:03:51;12.30;;;7.22;;
23567;SDS011;11962;50.838;4.430;2023-04-03T01:06:20;13.40;;;7.55;;
23567;SDS011;11962;50.838;4.430;2023-04-03T01:08:50;15.15;;;8.00;;
23567;SDS011;11962;50.838;4.430;2023-04-03T01:11:16;11.93;;;7.38;;
23567;SDS011;11962;50.838;4.430;2023-04-03T01:13:42;11.18;;;7.20;;
23567;SDS011;11962;50.838;4.430;2023-04-03T01:16:08;10.18;;;6.90;;
23567;SDS011;11962;50.838;4.430;2023-04-03T01:18:36;10.95;;;6.80;;
23567;SDS011;11962;50.838;4.430;2023-04-03T01:23:47;13.63;;;7.40;;
23567;SDS011;11962;50.838;4.430;2023-04-03T01:26:36;13.55;;;7.30;;
23567;SDS011;11962;50.838;4.430;2023-04-03T01:29:02;8.82;;;6.70;;
23567;SDS011;11962;50.838;4.430;2023-04-03T01:31:42;10.77;;;7.25;;
23567;SDS011;11962;50.838;4.430;2023-04-03T01:34:13;9.40;;;6.55;;
23567;SDS011;11962;50.838;4.430;2023-04-03T01:36:39;11.80;;;7.38;;
23567;SDS011;11962;50.838;4.430;2023-04-03T01:39:06;14.18;;;8.20;;
23567;SDS011;11962;50.838;4.430;2023-04-03T01:41:32;11.57;;;7.43;;
23567;SDS011;11962;50.838;4.430;2023-04-03T01:43:57;11.02;;;7.35;;
23567;SDS011;11962;50.838;4.430;2023-04-03T01:46:23;17.30;;;8.13;;
23567;SDS011;11962;50.838;4.430;2023-04-03T01:48:49;12.93;;;7.20;;
23567;SDS011;11962;50.838;4.430;2023-04-03T01:51:15;13.70;;;7.45;;
23567;SDS011;11962;50.838;4.430;2023-04-03T01:53:41;10.52;;;7.00;;
23567;SDS011;11962;50.838;4.430;2023-04-03T01:56:06;14.35;;;7.32;;
23567;SDS011;11962;50.838;4.430;2023-04-03T01:58:32;13.20;;;7.15;;
23567;SDS011;11962;50.838;4.430;2023-04-03T02:00:58;11.95;;;7.43;;
23567;SDS011;11962;50.838;4.430;2023-04-03T02:03:24;10.15;;;7.20;;
23567;SDS011;11962;50.838;4.430;2023-04-03T02:05:50;9.88;;;6.68;;
23567;SDS011;11962;50.838;4.430;2023-04-03T02:08:16;13.38;;;7.25;;
23567;SDS011;11962;50.838;4.430;2023-04-03T02:10:47;12.88;;;7.75;;
23567;SDS011;11962;50.838;4.430;2023-04-03T02:13:13;11.15;;;6.88;;
23567;SDS011;11962;50.838;4.430;2023-04-03T02:15:39;13.20;;;6.88;;
23567;SDS011;11962;50.838;4.430;2023-04-03T02:18:05;12.10;;;7.15;;
23567;SDS011;11962;50.838;4.430;2023-04-03T02:20:31;10.93;;;6.72;;
23567;SDS011;11962;50.838;4.430;2023-04-03T02:22:57;12.82;;;7.22;;
23567;SDS011;11962;50.838;4.430;2023-04-03T02:25:23;8.77;;;6.25;;
23567;SDS011;11962;50.838;4.430;2023-04-03T02:27:49;11.77;;;7.03;;
23567;SDS011;11962;50.838;4.430;2023-04-03T02:30:14;9.50;;;6.75;;
23567;SDS011;11962;50.838;4.430;2023-04-03T02:32:41;11.05;;;7.05;;
23567;SDS011;11962;50.838;4.430;2023-04-03T02:35:07;12.35;;;6.78;;
23567;SDS011;11962;50.838;4.430;2023-04-03T02:37:33;13.85;;;7.85;;
23567;SDS011;11962;50.838;4.430;2023-04-03T02:39:59;13.50;;;7.43;;
23567;SDS011;11962;50.838;4.430;2023-04-03T02:42:25;10.10;;;7.07;;
23567;SDS011;11962;50.838;4.430;2023-04-03T02:44:51;11.98;;;7.00;;
23567;SDS011;11962;50.838;4.430;2023-04-03T02:47:17;12.27;;;7.10;;
23567;SDS011;11962;50.838;4.430;2023-04-03T02:49:43;11.13;;;6.75;;
23567;SDS011;11962;50.838;4.430;2023-04-03T02:52:10;10.30;;;6.60;;
23567;SDS011;11962;50.838;4.430;2023-04-03T02:54:35;11.57;;;7.07;;
23567;SDS011;11962;50.838;4.430;2023-04-03T02:57:01;12.32;;;7.05;;
23567;SDS011;11962;50.838;4.430;2023-04-03T02:59:27;12.30;;;6.90;;
23567;SDS011;11962;50.838;4.430;2023-04-03T03:01:53;10.20;;;6.88;;
23567;SDS011;11962;50.838;4.430;2023-04-03T03:04:20;12.43;;;7.10;;
23567;SDS011;11962;50.838;4.430;2023-04-03T03:06:46;9.90;;;7.07;;
23567;SDS011;11962;50.838;4.430;2023-04-03T03:09:11;9.50;;;6.93;;
23567;SDS011;11962;50.838;4.430;2023-04-03T03:11:38;13.80;;;6.95;;
23567;SDS011;11962;50.838;4.430;2023-04-03T03:14:04;10.55;;;7.25;;
23567;SDS011;11962;50.838;4.430;2023-04-03T03:16:30;11.93;;;7.00;;
23567;SDS011;11962;50.838;4.430;2023-04-03T03:18:56;10.98;;;6.95;;
23567;SDS011;11962;50.838;4.430;2023-04-03T03:21:22;12.85;;;7.03;;
23567;SDS011;11962;50.838;4.430;2023-04-03T03:23:47;11.77;;;6.50;;
23567;SDS011;11962;50.838;4.430;2023-04-03T03:26:13;11.18;;;6.90;;
23567;SDS011;11962;50.838;4.430;2023-04-03T03:28:39;11.75;;;7.25;;
23567;SDS011;11962;50.838;4.430;2023-04-03T03:31:06;11.85;;;6.60;;
23567;SDS011;11962;50.838;4.430;2023-04-03T03:33:32;12.63;;;6.70;;
23567;SDS011;11962;50.838;4.430;2023-04-03T03:35:58;9.75;;;6.97;;
23567;SDS011;11962;50.838;4.430;2023-04-03T03:38:24;11.05;;;7.50;;
23567;SDS011;11962;50.838;4.430;2023-04-03T03:40:50;13.27;;;7.00;;
23567;SDS011;11962;50.838;4.430;2023-04-03T03:43:16;10.23;;;6.18;;
23567;SDS011;11962;50.838;4.430;2023-04-03T03:45:43;11.10;;;7.05;;
23567;SDS011;11962;50.838;4.430;2023-04-03T03:48:10;9.90;;;7.13;;
23567;SDS011;11962;50.838;4.430;2023-04-03T03:50:36;12.57;;;6.85;;
23567;SDS011;11962;50.838;4.430;2023-04-03T03:53:02;13.25;;;7.10;;
23567;SDS011;11962;50.838;4.430;2023-04-03T03:55:28;11.63;;;7.00;;
23567;SDS011;11962;50.838;4.430;2023-04-03T03:57:53;11.80;;;7.35;;
23567;SDS011;11962;50.838;4.430;2023-04-03T04:00:19;10.05;;;7.40;;
23567;SDS011;11962;50.838;4.430;2023-04-03T04:02:46;9.95;;;6.90;;
23567;SDS011;11962;50.838;4.430;2023-04-03T04:05:11;13.02;;;7.65;;
23567;SDS011;11962;50.838;4.430;2023-04-03T04:07:37;14.30;;;7.80;;
23567;SDS011;11962;50.838;4.430;2023-04-03T04:10:03;18.33;;;7.55;;
23567;SDS011;11962;50.838;4.430;2023-04-03T04:12:30;13.05;;;7.53;;
23567;SDS011;11962;50.838;4.430;2023-04-03T04:14:55;11.20;;;7.47;;
23567;SDS011;11962;50.838;4.430;2023-04-03T04:17:21;9.70;;;7.57;;
23567;SDS011;11962;50.838;4.430;2023-04-03T04:19:47;12.65;;;7.47;;
23567;SDS011;11962;50.838;4.430;2023-04-03T04:22:13;16.13;;;7.70;;
23567;SDS011;11962;50.838;4.430;2023-04-03T04:24:38;18.88;;;7.65;;
23567;SDS011;11962;50.838;4.430;2023-04-03T04:27:04;10.93;;;7.07;;
23567;SDS011;11962;50.838;4.430;2023-04-03T04:29:30;9.65;;;6.70;;
23567;SDS011;11962;50.838;4.430;2023-04-03T04:32:01;12.70;;;7.75;;
23567;SDS011;11962;50.838;4.430;2023-04-03T04:34:27;11.48;;;7.70;;
23567;SDS011;11962;50.838;4.430;2023-04-03T04:36:53;13.45;;;7.63;;
23567;SDS011;11962;50.838;4.430;2023-04-03T04:39:19;12.73;;;8.15;;
23567;SDS011;11962;50.838;4.430;2023-04-03T04:41:44;15.82;;;7.97;;
23567;SDS011;11962;50.838;4.430;2023-04-03T04:44:10;11.27;;;7.65;;
23567;SDS011;11962;50.838;4.430;2023-04-03T04:46:36;17.73;;;7.72;;
23567;SDS011;11962;50.838;4.430;2023-04-03T04:49:02;12.48;;;7.82;;
23567;SDS011;11962;50.838;4.430;2023-04-03T04:51:27;13.65;;;7.90;;
23567;SDS011;11962;50.838;4.430;2023-04-03T04:53:53;15.55;;;7.70;;
23567;SDS011;11962;50.838;4.430;2023-04-03T04:56:19;12.23;;;7.90;;
23567;SDS011;11962;50.838;4.430;2023-04-03T04:58:45;11.63;;;7.93;;
23567;SDS011;11962;50.838;4.430;2023-04-03T05:01:11;13.70;;;8.38;;
23567;SDS011;11962;50.838;4.430;2023-04-03T05:03:37;11.25;;;6.93;;
23567;SDS011;11962;50.838;4.430;2023-04-03T05:06:03;10.65;;;7.82;;
23567;SDS011;11962;50.838;4.430;2023-04-03T05:08:29;12.75;;;7.88;;
23567;SDS011;11962;50.838;4.430;2023-04-03T05:10:56;13.02;;;8.10;;
23567;SDS011;11962;50.838;4.430;2023-04-03T05:13:21;12.43;;;8.20;;
23567;SDS011;11962;50.838;4.430;2023-04-03T05:15:47;15.55;;;8.52;;
23567;SDS011;11962;50.838;4.430;2023-04-03T05:18:13;12.10;;;7.80;;
23567;SDS011;11962;50.838;4.430;2023-04-03T05:20:39;12.95;;;8.07;;
23567;SDS011;11962;50.838;4.430;2023-04-03T05:23:04;14.82;;;8.77;;
23567;SDS011;11962;50.838;4.430;2023-04-03T05:25:30;19.38;;;8.20;;
23567;SDS011;11962;50.838;4.430;2023-04-03T05:27:56;12.25;;;8.43;;
23567;SDS011;11962;50.838;4.430;2023-04-03T05:30:22;16.13;;;8.93;;
23567;SDS011;11962;50.838;4.430;2023-04-03T05:32:48;15.25;;;8.88;;
23567;SDS011;11962;50.838;4.430;2023-04-03T05:35:13;14.57;;;9.60;;
23567;SDS011;11962;50.838;4.430;2023-04-03T05:37:40;13.25;;;8.63;;
23567;SDS011;11962;50.838;4.430;2023-04-03T05:40:06;13.07;;;8.82;;
23567;SDS011;11962;50.838;4.430;2023-04-03T05:42:33;17.35;;;8.75;;
23567;SDS011;11962;50.838;4.430;2023-04-03T05:44:59;11.98;;;8.43;;
23567;SDS011;11962;50.838;4.430;2023-04-03T05:47:25;15.05;;;8.73;;
23567;SDS011;11962;50.838;4.430;2023-04-03T05:49:51;14.80;;;8.27;;
23567;SDS011;11962;50.838;4.430;2023-04-03T05:54:51;12.30;;;8.75;;
23567;SDS011;11962;50.838;4.430;2023-04-03T05:57:17;12.52;;;9.15;;
23567;SDS011;11962;50.838;4.430;2023-04-03T05:59:44;13.40;;;8.73;;
23567;SDS011;11962;50.838;4.430;2023-04-03T06:02:11;17.00;;;10.07;;
23567;SDS011;11962;50.838;4.430;2023-04-03T06:04:38;19.95;;;9.98;;
23567;SDS011;11962;50.838;4.430;2023-04-03T06:07:04;15.27;;;9.52;;
23567;SDS011;11962;50.838;4.430;2023-04-03T06:09:30;16.20;;;9.60;;
23567;SDS011;11962;50.838;4.430;2023-04-03T06:11:56;14.13;;;9.35;;
23567;SDS011;11962;50.838;4.430;2023-04-03T06:14:24;18.73;;;10.93;;
23567;SDS011;11962;50.838;4.430;2023-04-03T06:16:50;15.38;;;9.88;;
23567;SDS011;11962;50.838;4.430;2023-04-03T06:19:16;14.57;;;10.15;;
23567;SDS011;11962;50.838;4.430;2023-04-03T06:21:43;14.35;;;9.38;;
23567;SDS011;11962;50.838;4.430;2023-04-03T06:24:09;16.65;;;9.48;;
23567;SDS011;11962;50.838;4.430;2023-04-03T06:26:38;11.60;;;9.27;;
23567;SDS011;11962;50.838;4.430;2023-04-03T06:29:04;12.95;;;9.98;;
23567;SDS011;11962;50.838;4.430;2023-04-03T06:31:30;20.55;;;10.93;;
23567;SDS011;11962;50.838;4.430;2023-04-03T06:33:55;15.68;;;10.25;;
23567;SDS011;11962;50.838;4.430;2023-04-03T06:36:21;15.10;;;10.40;;
23567;SDS011;11962;50.838;4.430;2023-04-03T06:38:47;16.17;;;10.32;;
23567;SDS011;11962;50.838;4.430;2023-04-03T06:41:13;15.55;;;9.82;;
23567;SDS011;11962;50.838;4.430;2023-04-03T06:43:39;18.45;;;9.85;;
23567;SDS011;11962;50.838;4.430;2023-04-03T06:46:05;16.70;;;10.85;;
23567;SDS011;11962;50.838;4.430;2023-04-03T06:48:31;17.23;;;10.45;;
23567;SDS011;11962;50.838;4.430;2023-04-03T06:50:57;23.02;;;9.48;;
23567;SDS011;11962;50.838;4.430;2023-04-03T06:53:22;14.88;;;9.38;;
23567;SDS011;11962;50.838;4.430;2023-04-03T06:55:48;14.98;;;9.45;;
23567;SDS011;11962;50.838;4.430;2023-04-03T06:58:14;15.65;;;9.05;;
23567;SDS011;11962;50.838;4.430;2023-04-03T07:00:42;11.45;;;8.60;;
23567;SDS011;11962;50.838;4.430;2023-04-03T07:03:08;14.93;;;8.73;;
23567;SDS011;11962;50.838;4.430;2023-04-03T07:05:34;13.35;;;9.30;;
23567;SDS011;11962;50.838;4.430;2023-04-03T07:07:59;15.30;;;9.18;;
23567;SDS011;11962;50.838;4.430;2023-04-03T07:10:25;16.02;;;9.63;;
23567;SDS011;11962;50.838;4.430;2023-04-03T07:12:51;15.57;;;10.05;;
23567;SDS011;11962;50.838;4.430;2023-04-03T07:15:17;15.30;;;9.05;;
23567;SDS011;11962;50.838;4.430;2023-04-03T07:17:43;16.83;;;10.18;;
23567;SDS011;11962;50.838;4.430;2023-04-03T07:20:09;11.68;;;8.50;;
23567;SDS011;11962;50.838;4.430;2023-04-03T07:22:36;10.85;;;8.52;;
23567;SDS011;11962;50.838;4.430;2023-04-03T07:25:02;12.50;;;7.80;;
23567;SDS011;11962;50.838;4.430;2023-04-03T07:27:28;9.25;;;6.80;;
23567;SDS011;11962;50.838;4.430;2023-04-03T07:29:54;10.63;;;6.22;;
23567;SDS011;11962;50.838;4.430;2023-04-03T07:32:21;8.27;;;6.07;;
23567;SDS011;11962;50.838;4.430;2023-04-03T07:34:46;10.02;;;5.95;;
23567;SDS011;11962;50.838;4.430;2023-04-03T07:37:12;9.00;;;5.63;;
23567;SDS011;11962;50.838;4.430;2023-04-03T07:39:38;8.30;;;5.65;;
23567;SDS011;11962;50.838;4.430;2023-04-03T07:42:04;10.93;;;5.65;;
23567;SDS011;11962;50.838;4.430;2023-04-03T07:44:30;7.45;;;4.85;;
23567;SDS011;11962;50.838;4.430;2023-04-03T07:46:56;7.75;;;5.40;;
23567;SDS011;11962;50.838;4.430;2023-04-03T07:49:21;6.78;;;5.47;;
23567;SDS011;11962;50.838;4.430;2023-04-03T07:51:51;7.40;;;5.03;;
23567;SDS011;11962;50.838;4.430;2023-04-03T07:54:18;7.32;;;4.55;;
23567;SDS011;11962;50.838;4.430;2023-04-03T07:56:43;6.75;;;4.80;;
23567;SDS011;11962;50.838;4.430;2023-04-03T07:59:10;11.98;;;5.20;;
23567;SDS011;11962;50.838;4.430;2023-04-03T08:01:36;7.47;;;4.53;;
23567;SDS011;11962;50.838;4.430;2023-04-03T08:04:02;5.30;;;4.40;;
23567;SDS011;11962;50.838;4.430;2023-04-03T08:06:28;11.13;;;4.32;;
23567;SDS011;11962;50.838;4.430;2023-04-03T08:08:59;6.00;;;3.70;;
23567;SDS011;11962;50.838;4.430;2023-04-03T08:11:25;5.43;;;3.60;;
23567;SDS011;11962;50.838;4.430;2023-04-03T08:13:52;8.65;;;4.00;;
23567;SDS011;11962;50.838;4.430;2023-04-03T08:16:18;6.35;;;3.80;;
23567;SDS011;11962;50.838;4.430;2023-04-03T08:18:47;6.43;;;3.17;;
23567;SDS011;11962;50.838;4.430;2023-04-03T08:21:13;6.43;;;3.97;;
23567;SDS011;11962;50.838;4.430;2023-04-03T08:23:39;6.47;;;3.45;;
23567;SDS011;11962;50.838;4.430;2023-04-03T08:26:10;8.57;;;4.10;;
23567;SDS011;11962;50.838;4.430;2023-04-03T08:28:38;4.75;;;3.70;;
23567;SDS011;11962;50.838;4.430;2023-04-03T08:31:06;8.50;;;3.90;;
23567;SDS011;11962;50.838;4.430;2023-04-03T08:33:35;4.57;;;3.15;;
23567;SDS011;11962;50.838;4.430;2023-04-03T08:36:05;5.88;;;3.50;;
23567;SDS011;11962;50.838;4.430;2023-04-03T08:38:32;5.63;;;3.75;;
23567;SDS011;11962;50.838;4.430;2023-04-03T08:41:02;6.82;;;3.65;;
23567;SDS011;11962;50.838;4.430;2023-04-03T08:43:48;6.95;;;3.42;;
23567;SDS011;11962;50.838;4.430;2023-04-03T08:52:12;7.47;;;3.60;;
23567;SDS011;11962;50.838;4.430;2023-04-03T08:54:57;7.30;;;3.17;;
23567;SDS011;11962;50.838;4.430;2023-04-03T09:00:23;4.57;;;3.05;;
23567;SDS011;11962;50.838;4.430;2023-04-03T09:02:51;7.18;;;2.92;;
23567;SDS011;11962;50.838;4.430;2023-04-03T09:05:22;4.78;;;2.72;;
23567;SDS011;11962;50.838;4.430;2023-04-03T09:10:43;3.88;;;2.90;;
23567;SDS011;11962;50.838;4.430;2023-04-03T09:15:58;8.00;;;3.03;;
23567;SDS011;11962;50.838;4.430;2023-04-03T09:18:28;5.28;;;2.85;;
23567;SDS011;11962;50.838;4.430;2023-04-03T09:21:20;4.22;;;2.50;;
23567;SDS011;11962;50.838;4.430;2023-04-03T09:23:58;4.68;;;2.40;;
23567;SDS011;11962;50.838;4.430;2023-04-03T09:26:26;4.10;;;2.35;;
23567;SDS011;11962;50.838;4.430;2023-04-03T09:28:58;6.80;;;2.20;;
23567;SDS011;11962;50.838;4.430;2023-04-03T09:31:29;7.10;;;2.75;;
23567;SDS011;11962;50.838;4.430;2023-04-03T09:34:16;3.65;;;1.98;;
23567;SDS011;11962;50.838;4.430;2023-04-03T09:36:47;4.22;;;1.75;;
23567;SDS011;11962;50.838;4.430;2023-04-03T09:39:22;5.30;;;2.40;;
23567;SDS011;11962;50.838;4.430;2023-04-03T09:42:03;4.47;;;2.13;;
23567;SDS011;11962;50.838;4.430;2023-04-03T09:45:20;5.50;;;2.38;;
23567;SDS011;11962;50.838;4.430;2023-04-03T09:47:47;4.57;;;2.20;;
23567;SDS011;11962;50.838;4.430;2023-04-03T09:52:43;4.72;;;2.22;;
23567;SDS011;11962;50.838;4.430;2023-04-03T09:55:15;4.60;;;1.95;;
23567;SDS011;11962;50.838;4.430;2023-04-03T09:57:42;4.70;;;2.10;;
23567;SDS011;11962;50.838;4.430;2023-04-03T10:02:56;4.18;;;2.05;;
23567;SDS011;11962;50.838;4.430;2023-04-03T10:05:28;4.88;;;2.25;;
23567;SDS011;11962;50.838;4.430;2023-04-03T10:08:08;4.78;;;2.13;;
23567;SDS011;11962;50.838;4.430;2023-04-03T10:10:43;3.38;;;1.95;;
23567;SDS011;11962;50.838;4.430;2023-04-03T10:13:18;3.97;;;2.05;;
23567;SDS011;11962;50.838;4.430;2023-04-03T10:15:55;7.07;;;2.10;;
23567;SDS011;11962;50.838;4.430;2023-04-03T10:18:29;4.25;;;2.28;;
23567;SDS011;11962;50.838;4.430;2023-04-03T10:21:10;4.53;;;1.75;;
23567;SDS011;11962;50.838;4.430;2023-04-03T10:32:29;3.67;;;2.03;;
23567;SDS011;11962;50.838;4.430;2023-04-03T10:38:01;6.25;;;2.20;;
23567;SDS011;11962;50.838;4.430;2023-04-03T10:43:22;4.80;;;1.95;;
23567;SDS011;11962;50.838;4.430;2023-04-03T10:46:16;4.18;;;1.83;;
23567;SDS011;11962;50.838;4.430;2023-04-03T10:48:52;5.50;;;1.73;;
23567;SDS011;11962;50.838;4.430;2023-04-03T10:56:44;3.22;;;1.40;;
23567;SDS011;11962;50.838;4.430;2023-04-03T11:04:42;3.97;;;2.08;;
23567;SDS011;11962;50.838;4.430;2023-04-03T11:07:15;3.25;;;1.85;;
23567;SDS011;11962;50.838;4.430;2023-04-03T11:09:47;4.65;;;2.10;;
23567;SDS011;11962;50.838;4.430;2023-04-03T11:12:28;6.32;;;2.20;;
23567;SDS011;11962;50.838;4.430;2023-04-03T11:15:11;2.83;;;1.42;;
23567;SDS011;11962;50.838;4.430;2023-04-03T11:17:41;3.03;;;1.42;;
23567;SDS011;11962;50.838;4.430;2023-04-03T11:20:19;5.82;;;1.60;;
23567;SDS011;11962;50.838;4.430;2023-04-03T11:23:39;4.13;;;1.40;;
23567;SDS011;11962;50.838;4.430;2023-04-03T11:25:44;4.97;;;2.00;;
23567;SDS011;11962;50.838;4.430;2023-04-03T11:28:14;2.95;;;1.50;;
23567;SDS011;11962;50.838;4.430;2023-04-03T11:38:36;3.13;;;1.52;;
23567;SDS011;11962;50.838;4.430;2023-04-03T11:41:07;4.55;;;1.75;;
23567;SDS011;11962;50.838;4.430;2023-04-03T11:47:10;4.53;;;2.05;;
23567;SDS011;11962;50.838;4.430;2023-04-03T12:13:36;3.30;;;1.80;;
23567;SDS011;11962;50.838;4.430;2023-04-03T12:16:04;7.40;;;2.25;;
23567;SDS011;11962;50.838;4.430;2023-04-03T12:18:32;4.72;;;1.50;;
23567;SDS011;11962;50.838;4.430;2023-04-03T12:43:10;5.45;;;1.73;;
23567;SDS011;11962;50.838;4.430;2023-04-03T12:48:31;4.05;;;1.60;;
23567;SDS011;11962;50.838;4.430;2023-04-03T12:51:03;4.65;;;1.67;;
23567;SDS011;11962;50.838;4.430;2023-04-03T12:53:34;3.95;;;1.65;;
23567;SDS011;11962;50.838;4.430;2023-04-03T12:58:48;2.75;;;1.45;;
23567;SDS011;11962;50.838;4.430;2023-04-03T13:01:16;4.95;;;1.45;;
23567;SDS011;11962;50.838;4.430;2023-04-03T13:03:47;3.67;;;1.67;;
23567;SDS011;11962;50.838;4.430;2023-04-03T13:06:25;4.85;;;1.55;;
23567;SDS011;11962;50.838;4.430;2023-04-03T13:08:56;2.38;;;1.30;;
23567;SDS011;11962;50.838;4.430;2023-04-03T13:11:23;4.63;;;1.80;;
23567;SDS011;11962;50.838;4.430;2023-04-03T13:14:04;5.75;;;1.92;;
23567;SDS011;11962;50.838;4.430;2023-04-03T13:16:39;3.33;;;1.77;;
23567;SDS011;11962;50.838;4.430;2023-04-03T13:19:06;5.90;;;2.13;;
23567;SDS011;11962;50.838;4.430;2023-04-03T13:21:42;6.15;;;1.80;;
23567;SDS011;11962;50.838;4.430;2023-04-03T13:24:10;3.23;;;1.33;;
23567;SDS011;11962;50.838;4.430;2023-04-03T13:26:36;2.95;;;1.55;;
23567;SDS011;11962;50.838;4.430;2023-04-03T13:29:03;4.07;;;1.75;;
23567;SDS011;11962;50.838;4.430;2023-04-03T13:36:42;8.18;;;1.67;;
23567;SDS011;11962;50.838;4.430;2023-04-03T13:39:33;4.75;;;1.65;;
23567;SDS011;11962;50.838;4.430;2023-04-03T13:42:15;4.75;;;1.80;;
23567;SDS011;11962;50.838;4.430;2023-04-03T13:44:45;3.92;;;1.90;;
23567;SDS011;11962;50.838;4.430;2023-04-03T13:47:17;4.55;;;1.85;;
23567;SDS011;11962;50.838;4.430;2023-04-03T13:49:57;4.10;;;1.85;;
23567;SDS011;11962;50.838;4.430;2023-04-03T13:52:48;3.13;;;1.73;;
23567;SDS011;11962;50.838;4.430;2023-04-03T13:55:22;6.18;;;1.88;;
23567;SDS011;11962;50.838;4.430;2023-04-03T13:57:53;3.40;;;1.67;;
23567;SDS011;11962;50.838;4.430;2023-04-03T14:02:54;3.05;;;1.70;;
23567;SDS011;11962;50.838;4.430;2023-04-03T14:05:21;3.25;;;1.80;;
23567;SDS011;11962;50.838;4.430;2023-04-03T14:07:49;4.00;;;2.10;;
23567;SDS011;11962;50.838;4.430;2023-04-03T14:10:15;3.97;;;1.80;;
23567;SDS011;11962;50.838;4.430;2023-04-03T14:12:42;4.60;;;1.50;;
23567;SDS011;11962;50.838;4.430;2023-04-03T14:15:28;5.47;;;1.88;;
23567;SDS011;11962;50.838;4.430;2023-04-03T14:17:55;3.38;;;1.65;;
23567;SDS011;11962;50.838;4.430;2023-04-03T14:20:22;3.10;;;2.10;;
23567;SDS011;11962;50.838;4.430;2023-04-03T14:22:50;4.20;;;1.70;;
23567;SDS011;11962;50.838;4.430;2023-04-03T14:25:16;3.92;;;1.85;;
23567;SDS011;11962;50.838;4.430;2023-04-03T14:27:45;5.07;;;1.83;;
23567;SDS011;11962;50.838;4.430;2023-04-03T14:30:25;3.97;;;1.95;;
23567;SDS011;11962;50.838;4.430;2023-04-03T14:32:51;4.25;;;2.15;;
23567;SDS011;11962;50.838;4.430;2023-04-03T14:35:17;6.18;;;1.85;;
23567;SDS011;11962;50.838;4.430;2023-04-03T14:37:43;6.32;;;2.00;;
23567;SDS011;11962;50.838;4.430;2023-04-03T14:40:14;5.45;;;2.10;;
23567;SDS011;11962;50.838;4.430;2023-04-03T14:42:43;2.35;;;1.63;;
23567;SDS011;11962;50.838;4.430;2023-04-03T14:45:11;4.72;;;1.90;;
23567;SDS011;11962;50.838;4.430;2023-04-03T14:47:39;2.88;;;1.40;;
23567;SDS011;11962;50.838;4.430;2023-04-03T14:50:18;4.50;;;1.58;;
23567;SDS011;11962;50.838;4.430;2023-04-03T14:52:51;3.65;;;1.98;;
23567;SDS011;11962;50.838;4.430;2023-04-03T14:55:19;4.00;;;1.92;;
23567;SDS011;11962;50.838;4.430;2023-04-03T14:57:46;3.45;;;1.63;;
23567;SDS011;11962;50.838;4.430;2023-04-03T15:00:16;4.97;;;1.42;;
23567;SDS011;11962;50.838;4.430;2023-04-03T15:02:44;3.70;;;1.85;;
23567;SDS011;11962;50.838;4.430;2023-04-03T15:05:11;2.60;;;1.52;;
23567;SDS011;11962;50.838;4.430;2023-04-03T15:07:58;3.92;;;1.45;;
23567;SDS011;11962;50.838;4.430;2023-04-03T15:10:26;5.38;;;2.30;;
23567;SDS011;11962;50.838;4.430;2023-04-03T15:12:53;5.60;;;1.52;;
23567;SDS011;11962;50.838;4.430;2023-04-03T15:15:20;2.80;;;1.50;;
23567;SDS011;11962;50.838;4.430;2023-04-03T15:17:52;2.70;;;1.48;;
23567;SDS011;11962;50.838;4.430;2023-04-03T15:20:23;3.85;;;1.88;;
23567;SDS011;11962;50.838;4.430;2023-04-03T15:22:51;5.88;;;1.80;;
23567;SDS011;11962;50.838;4.430;2023-04-03T15:25:17;5.68;;;1.70;;
23567;SDS011;11962;50.838;4.430;2023-04-03T15:27:43;3.38;;;1.65;;
23567;SDS011;11962;50.838;4.430;2023-04-03T15:30:14;2.97;;;1.60;;
23567;SDS011;11962;50.838;4.430;2023-04-03T15:32:41;3.85;;;1.52;;
23567;SDS011;11962;50.838;4.430;2023-04-03T15:35:07;6.32;;;2.33;;
23567;SDS011;11962;50.838;4.430;2023-04-03T15:37:32;2.83;;;1.88;;
23567;SDS011;11962;50.838;4.430;2023-04-03T15:39:58;3.50;;;1.50;;
23567;SDS011;11962;50.838;4.430;2023-04-03T15:42:24;5.18;;;1.67;;
23567;SDS011;11962;50.838;4.430;2023-04-03T15:44:50;4.88;;;1.67;;
23567;SDS011;11962;50.838;4.430;2023-04-03T15:47:15;3.15;;;1.60;;
23567;SDS011;11962;50.838;4.430;2023-04-03T15:49:41;2.72;;;1.92;;
23567;SDS011;11962;50.838;4.430;2023-04-03T15:52:07;4.65;;;1.98;;
23567;SDS011;11962;50.838;4.430;2023-04-03T15:54:33;2.95;;;1.85;;
23567;SDS011;11962;50.838;4.430;2023-04-03T15:56:59;8.52;;;2.13;;
23567;SDS011;11962;50.838;4.430;2023-04-03T15:59:25;7.75;;;2.25;;
23567;SDS011;11962;50.838;4.430;2023-04-03T16:01:51;5.57;;;2.10;;
23567;SDS011;11962;50.838;4.430;2023-04-03T16:04:17;2.92;;;1.90;;
23567;SDS011;11962;50.838;4.430;2023-04-03T16:06:45;4.63;;;1.88;;
23567;SDS011;11962;50.838;4.430;2023-04-03T16:09:11;4.00;;;1.90;;
23567;SDS011;11962;50.838;4.430;2023-04-03T16:11:37;2.15;;;1.60;;
23567;SDS011;11962;50.838;4.430;2023-04-03T16:14:05;6.68;;;2.22;;
23567;SDS011;11962;50.838;4.430;2023-04-03T16:16:31;5.28;;;2.30;;
23567;SDS011;11962;50.838;4.430;2023-04-03T16:18:58;4.78;;;2.40;;
23567;SDS011;11962;50.838;4.430;2023-04-03T16:21:23;4.93;;;1.80;;
23567;SDS011;11962;50.838;4.430;2023-04-03T16:23:50;6.57;;;2.67;;
23567;SDS011;11962;50.838;4.430;2023-04-03T16:26:16;5.13;;;2.05;;
23567;SDS011;11962;50.838;4.430;2023-04-03T16:28:42;3.95;;;2.20;;
23567;SDS011;11962;50.838;4.430;2023-04-03T16:31:08;4.03;;;2.10;;
23567;SDS011;11962;50.838;4.430;2023-04-03T16:33:34;5.43;;;2.38;;
23567;SDS011;11962;50.838;4.430;2023-04-03T16:36:01;3.95;;;2.17;;
23567;SDS011;11962;50.838;4.430;2023-04-03T16:38:29;3.85;;;2.28;;
23567;SDS011;11962;50.838;4.430;2023-04-03T16:40:55;4.28;;;2.30;;
23567;SDS011;11962;50.838;4.430;2023-04-03T16:43:27;7.53;;;2.30;;
23567;SDS011;11962;50.838;4.430;2023-04-03T16:45:53;5.13;;;2.22;;
23567;SDS011;11962;50.838;4.430;2023-04-03T16:48:18;3.97;;;2.05;;